首页
METAR-TAF:

METAR-TAF

机场 :

倫敦盧頓機場

卢顿, 英格兰

纬度: 51-52N, 经度: 000-22W, 海拔: 160米

当前天气观测

该预报发布于35分钟前的08:20 UTC
风速5节,风向北转东北,在之间变化
温度 12°C
湿度 94%
气压 1015 hPa
能见度10公里或以上
多云层高于500英尺
阴天层高于2100英尺

METAR: EGGW 190820Z AUTO 03005KT 010V080 9999 BKN005 OVC021 12/11 Q1015

时间: 09:55 (08:55 UTC)

预报

该预报发布于1小时和3分钟前的07:52 UTC
预报有效从19日的 08点(UTC)到 20日的 06点(UTC)
风速6节,风向
能见度10公里或以上
多云层高于300英尺
成为
从 19日的 08点(UTC)到 19日的 11点(UTC)
风速10节,风向
多云层高于1800英尺
几率 30% :
短暂存在
从 19日的 15点(UTC)到 19日的 22点(UTC)
多云层高于1200英尺
几率 30% :
短暂存在
从 19日的 21点(UTC)到 20日的 03点(UTC)
能見度: 5000
阵雨
成为
从 19日的 22点(UTC)到 20日的 01点(UTC)
多云层高于800英尺
几率 40% :
短暂存在
从 20日的 03点(UTC)到 20日的 06点(UTC)
能見度: 3000
多云层高于400英尺
雨, 毛毛雨

TAF: EGGW 190752Z 1908/2006 01006KT 9999 BKN003 BECMG 1908/1911 09010KT BKN018 PROB30 TEMPO 1915/1922 BKN012 PROB30 TEMPO 1921/2003 5000 SHRA BECMG 1922/2001 BKN008 PROB40 TEMPO 2003/2006 3000 RADZ BKN004

超过4000个机场的气象观测和天气预报(METAR&TAF报告)。

可查询的气象台以黄色和红色小点在地图上表示。

将鼠标移到小点上方,可查看气象台名称。

然后点击查看天气观测和预报。

如需切换地图:点击带黑十字的绿色按钮放大地图;点击带横线的绿色按钮缩小地图;或者点击绿色箭头查看邻近地区的地图。


METAR-TAF: